createdAt,value
2023-08-31T00:01:13.492Z,7.80
2023-08-31T00:03:41.220Z,9.80
2023-08-31T00:06:08.787Z,8.52
2023-08-31T00:08:36.359Z,7.20
2023-08-31T00:11:04.069Z,7.10
2023-08-31T00:13:31.468Z,7.47
2023-08-31T00:15:59.573Z,9.90
2023-08-31T00:18:27.674Z,7.03
2023-08-31T00:20:55.204Z,9.88
2023-08-31T00:23:22.701Z,8.50
2023-08-31T00:25:50.457Z,8.55
2023-08-31T00:28:19.451Z,8.02
2023-08-31T00:30:47.470Z,7.57
2023-08-31T00:33:16.559Z,8.27
2023-08-31T00:35:47.163Z,7.40
2023-08-31T00:38:15.600Z,7.97
2023-08-31T00:40:46.588Z,7.37
2023-08-31T00:43:19.017Z,9.98
2023-08-31T00:46:00.330Z,9.35
2023-08-31T00:48:28.132Z,10.27
2023-08-31T00:50:55.983Z,10.40
2023-08-31T00:53:24.306Z,9.10
2023-08-31T00:55:52.267Z,11.10
2023-08-31T00:58:20.345Z,10.30
2023-08-31T01:01:03.045Z,11.48
2023-08-31T01:04:03.506Z,8.88
2023-08-31T01:07:10.130Z,11.75
2023-08-31T01:09:46.583Z,8.68
2023-08-31T01:12:22.333Z,9.13
2023-08-31T01:15:00.557Z,9.55
2023-08-31T01:17:29.811Z,9.52
2023-08-31T01:20:00.469Z,9.75
2023-08-31T01:22:38.962Z,9.45
2023-08-31T01:25:10.067Z,8.20
2023-08-31T01:27:38.753Z,11.65
2023-08-31T01:30:07.363Z,11.82
2023-08-31T01:32:35.364Z,10.82
2023-08-31T01:35:06.299Z,6.28
2023-08-31T01:37:52.534Z,9.60
2023-08-31T01:40:24.956Z,10.77
2023-08-31T01:42:52.631Z,6.68
2023-08-31T01:45:22.381Z,7.12
2023-08-31T01:47:50.284Z,8.07
2023-08-31T01:50:19.702Z,6.25
2023-08-31T01:52:47.501Z,7.35
2023-08-31T01:55:16.915Z,8.23
2023-08-31T01:57:44.424Z,7.28
2023-08-31T02:00:12.773Z,6.57
2023-08-31T02:02:42.728Z,7.40
2023-08-31T02:05:11.047Z,6.87
2023-08-31T02:07:38.656Z,10.23
2023-08-31T02:10:09.527Z,6.07
2023-08-31T02:12:38.214Z,7.03
2023-08-31T02:15:07.040Z,9.13
2023-08-31T02:17:35.637Z,8.85
2023-08-31T02:20:05.837Z,7.00
2023-08-31T02:22:35.235Z,8.70
2023-08-31T02:25:02.961Z,5.85
2023-08-31T02:27:30.384Z,6.10
2023-08-31T02:29:57.998Z,7.18
2023-08-31T02:32:25.745Z,6.87
2023-08-31T02:34:53.525Z,8.55
2023-08-31T02:37:20.933Z,6.55
2023-08-31T02:39:48.774Z,8.43
2023-08-31T02:42:16.166Z,7.22
2023-08-31T02:44:43.609Z,7.45
2023-08-31T02:47:11.398Z,7.60
2023-08-31T02:49:38.868Z,7.03
2023-08-31T02:52:06.443Z,6.05
2023-08-31T02:54:34.183Z,7.15
2023-08-31T02:57:01.652Z,8.50
2023-08-31T02:59:29.552Z,5.78
2023-08-31T03:01:57.364Z,5.60
2023-08-31T03:04:25.906Z,6.80
2023-08-31T03:06:53.358Z,8.40
2023-08-31T03:09:21.405Z,6.50
2023-08-31T03:11:48.978Z,6.95
2023-08-31T03:14:16.387Z,6.28
2023-08-31T03:16:44.102Z,5.62
2023-08-31T03:19:11.626Z,5.65
2023-08-31T03:21:39.179Z,6.10
2023-08-31T03:24:07.074Z,6.93
2023-08-31T03:26:35.063Z,4.82
2023-08-31T03:29:04.725Z,6.50
2023-08-31T03:31:33.041Z,5.65
2023-08-31T03:34:00.456Z,5.57
2023-08-31T03:36:28.335Z,4.72
2023-08-31T03:38:56.109Z,5.97
2023-08-31T03:41:23.710Z,5.53
2023-08-31T03:43:51.427Z,6.35
2023-08-31T03:46:22.837Z,7.55
2023-08-31T03:48:50.364Z,5.82
2023-08-31T03:51:17.803Z,6.70
2023-08-31T03:53:46.520Z,5.70
2023-08-31T03:56:14.016Z,4.93
2023-08-31T03:58:42.929Z,5.32
2023-08-31T04:01:11.902Z,6.05
2023-08-31T04:03:39.843Z,5.80
2023-08-31T04:06:07.600Z,7.45
2023-08-31T04:08:35.065Z,5.78
2023-08-31T04:11:04.709Z,6.03
2023-08-31T04:13:32.129Z,6.00
2023-08-31T04:15:59.611Z,5.50
2023-08-31T04:18:27.422Z,6.72
2023-08-31T04:20:55.805Z,6.53
2023-08-31T04:23:23.261Z,5.30
2023-08-31T04:25:52.690Z,5.70
2023-08-31T04:28:20.201Z,5.10
2023-08-31T04:30:47.633Z,5.30
2023-08-31T04:33:15.514Z,7.50
2023-08-31T04:35:43.481Z,5.15
2023-08-31T04:38:11.153Z,8.65
2023-08-31T04:40:38.806Z,10.88
2023-08-31T04:43:06.249Z,6.25
2023-08-31T04:45:33.732Z,5.32
2023-08-31T04:48:01.503Z,4.47
2023-08-31T04:50:29.957Z,6.60
2023-08-31T04:52:57.569Z,4.22
2023-08-31T04:55:26.415Z,5.65
2023-08-31T04:57:53.878Z,6.00
2023-08-31T05:00:21.636Z,4.93
2023-08-31T05:02:49.329Z,5.22
2023-08-31T05:05:16.830Z,6.85
2023-08-31T05:07:44.492Z,4.03
2023-08-31T05:10:12.488Z,5.30
2023-08-31T05:12:39.944Z,5.50
2023-08-31T05:15:07.854Z,4.50
2023-08-31T05:17:35.687Z,5.75
2023-08-31T05:20:05.279Z,6.97
2023-08-31T05:22:32.722Z,4.00
2023-08-31T05:25:01.678Z,3.92
2023-08-31T05:27:29.524Z,4.25
2023-08-31T05:29:56.938Z,5.32
2023-08-31T05:32:24.604Z,4.65
2023-08-31T05:34:51.989Z,4.70
2023-08-31T05:37:19.369Z,4.90
2023-08-31T05:39:51.001Z,5.00
2023-08-31T05:42:19.242Z,4.50
2023-08-31T05:44:47.015Z,3.90
2023-08-31T05:47:14.397Z,4.28
2023-08-31T05:49:41.795Z,4.70
2023-08-31T05:52:09.703Z,5.85
2023-08-31T05:54:37.111Z,4.60
2023-08-31T05:57:06.621Z,4.15
2023-08-31T05:59:34.350Z,4.25
2023-08-31T06:02:01.871Z,4.32
2023-08-31T06:04:29.717Z,3.92
2023-08-31T06:06:57.198Z,5.10
2023-08-31T06:09:24.653Z,5.57
2023-08-31T06:11:52.337Z,3.55
2023-08-31T06:14:20.625Z,3.55
2023-08-31T06:16:48.333Z,5.18
2023-08-31T06:19:16.664Z,5.53
2023-08-31T06:21:44.321Z,6.45
2023-08-31T06:24:14.025Z,3.75
2023-08-31T06:26:42.215Z,5.35
2023-08-31T06:29:11.742Z,3.72
2023-08-31T06:31:39.182Z,5.22
2023-08-31T06:34:06.933Z,3.67
2023-08-31T06:36:34.986Z,4.00
2023-08-31T06:39:02.394Z,5.47
2023-08-31T06:41:30.219Z,3.28
2023-08-31T06:43:57.726Z,4.28
2023-08-31T06:46:25.630Z,3.58
2023-08-31T06:48:53.875Z,4.55
2023-08-31T06:51:23.125Z,3.60
2023-08-31T06:53:52.785Z,6.43
2023-08-31T06:56:20.411Z,3.30
2023-08-31T06:58:47.823Z,4.97
2023-08-31T07:01:15.666Z,3.80
2023-08-31T07:03:43.347Z,3.35
2023-08-31T07:06:10.799Z,4.30
2023-08-31T07:08:41.630Z,4.22
2023-08-31T07:11:09.062Z,5.82
2023-08-31T07:13:36.420Z,3.40
2023-08-31T07:16:04.148Z,3.60
2023-08-31T07:18:31.545Z,5.15
2023-08-31T07:20:59.087Z,4.90
2023-08-31T07:23:26.874Z,3.03
2023-08-31T07:25:58.961Z,2.85
2023-08-31T07:28:27.147Z,3.30
2023-08-31T07:31:07.460Z,3.55
2023-08-31T07:33:36.984Z,3.17
2023-08-31T07:36:09.013Z,4.45
2023-08-31T07:38:36.734Z,5.43
2023-08-31T07:41:05.485Z,4.75
2023-08-31T07:43:33.103Z,3.28
2023-08-31T07:46:00.905Z,8.75
2023-08-31T07:48:28.502Z,4.45
2023-08-31T07:50:56.565Z,2.35
2023-08-31T07:53:24.278Z,2.78
2023-08-31T07:55:55.906Z,3.20
2023-08-31T07:58:24.755Z,4.53
2023-08-31T08:00:56.172Z,3.53
2023-08-31T08:03:24.730Z,3.40
2023-08-31T08:05:52.626Z,4.22
2023-08-31T08:08:20.017Z,2.95
2023-08-31T08:10:47.957Z,3.08
2023-08-31T08:13:16.528Z,2.78
2023-08-31T08:15:43.954Z,3.85
2023-08-31T08:18:11.696Z,2.85
2023-08-31T08:20:39.221Z,5.45
2023-08-31T08:23:07.211Z,2.83
2023-08-31T08:25:35.412Z,3.95
2023-08-31T08:28:04.308Z,3.45
2023-08-31T08:30:31.772Z,3.10
2023-08-31T08:32:59.982Z,4.22
2023-08-31T08:35:27.460Z,2.12
2023-08-31T08:37:54.865Z,5.50
2023-08-31T08:40:22.616Z,3.30
2023-08-31T08:42:51.642Z,4.00
2023-08-31T08:45:20.497Z,3.83
2023-08-31T08:47:48.259Z,3.45
2023-08-31T08:50:16.102Z,2.37
2023-08-31T08:52:44.239Z,2.95
2023-08-31T08:55:12.824Z,2.47
2023-08-31T08:57:40.827Z,2.00
2023-08-31T09:00:08.910Z,2.12
2023-08-31T09:02:36.850Z,3.58
2023-08-31T09:05:04.853Z,3.12
2023-08-31T09:07:36.399Z,4.40
2023-08-31T09:10:05.362Z,2.05
2023-08-31T09:12:33.360Z,1.80
2023-08-31T09:15:07.831Z,1.75
2023-08-31T09:17:40.784Z,2.97
2023-08-31T09:20:10.109Z,2.33
2023-08-31T09:22:37.915Z,3.50
2023-08-31T09:25:09.874Z,1.58
2023-08-31T09:27:41.585Z,3.10
2023-08-31T09:30:09.512Z,3.03
2023-08-31T09:32:37.416Z,1.95
2023-08-31T09:35:17.793Z,2.00
2023-08-31T09:37:58.301Z,1.52
2023-08-31T09:40:26.120Z,2.00
2023-08-31T09:42:53.689Z,3.25
2023-08-31T09:45:44.775Z,1.65
2023-08-31T09:48:16.367Z,3.30
2023-08-31T09:50:47.121Z,2.00
2023-08-31T09:53:17.446Z,2.53
2023-08-31T09:55:45.324Z,2.33
2023-08-31T09:58:16.598Z,2.65
2023-08-31T10:03:19.030Z,1.45
2023-08-31T10:05:48.798Z,2.17
2023-08-31T10:08:17.036Z,2.33
2023-08-31T10:10:45.188Z,2.78
2023-08-31T10:13:13.646Z,2.55
2023-08-31T10:15:43.004Z,2.10
2023-08-31T10:18:10.466Z,3.25
2023-08-31T10:20:37.948Z,2.17
2023-08-31T10:23:06.815Z,2.08
2023-08-31T10:26:00.986Z,2.62
2023-08-31T10:28:29.575Z,2.75
2023-08-31T10:31:08.422Z,2.75
2023-08-31T10:33:40.373Z,1.90
2023-08-31T10:36:15.647Z,3.62
2023-08-31T10:39:00.687Z,2.65
2023-08-31T10:41:39.880Z,4.30
2023-08-31T10:44:20.974Z,2.83
2023-08-31T10:46:49.864Z,1.45
2023-08-31T10:49:20.079Z,5.22
2023-08-31T10:51:55.595Z,2.12
2023-08-31T10:54:36.700Z,3.15
2023-08-31T10:57:08.306Z,2.65
2023-08-31T10:59:46.517Z,5.72
2023-08-31T11:02:52.624Z,2.47
2023-08-31T11:05:23.511Z,3.12
2023-08-31T11:10:29.123Z,2.50
2023-08-31T11:12:58.488Z,2.58
2023-08-31T11:15:27.694Z,3.22
2023-08-31T11:17:56.191Z,3.42
2023-08-31T11:20:25.112Z,2.65
2023-08-31T11:22:55.814Z,5.90
2023-08-31T11:25:25.367Z,6.25
2023-08-31T11:27:57.380Z,4.93
2023-08-31T11:30:26.776Z,8.27
2023-08-31T11:32:55.027Z,3.67
2023-08-31T11:35:24.278Z,4.68
2023-08-31T11:37:56.471Z,2.00
2023-08-31T11:40:24.352Z,5.22
2023-08-31T11:42:52.841Z,3.12
2023-08-31T11:45:21.837Z,6.53
2023-08-31T11:47:50.694Z,1.95
2023-08-31T11:50:18.721Z,2.12
2023-08-31T11:52:46.283Z,4.22
2023-08-31T11:55:16.036Z,2.70
2023-08-31T11:57:51.204Z,2.00
2023-08-31T12:00:23.432Z,5.05
2023-08-31T12:03:00.537Z,1.90
2023-08-31T12:05:29.219Z,3.45
2023-08-31T12:07:57.322Z,2.95
2023-08-31T12:10:26.832Z,2.92
2023-08-31T12:12:56.681Z,2.58
2023-08-31T12:15:24.431Z,1.87
2023-08-31T12:17:56.385Z,1.40
2023-08-31T12:20:28.040Z,1.80
2023-08-31T12:22:55.584Z,3.22
2023-08-31T12:25:23.315Z,2.90
2023-08-31T12:27:51.283Z,2.90
2023-08-31T12:30:18.809Z,1.98
2023-08-31T12:32:46.292Z,2.60
2023-08-31T12:35:15.477Z,3.15
2023-08-31T12:37:43.170Z,2.15
2023-08-31T12:40:11.302Z,2.65
2023-08-31T12:42:39.019Z,2.10
2023-08-31T12:45:07.001Z,3.62
2023-08-31T12:47:35.821Z,3.10
2023-08-31T12:50:04.374Z,2.00
2023-08-31T12:52:31.832Z,2.10
2023-08-31T12:54:59.260Z,1.70
2023-08-31T12:57:27.002Z,4.18
2023-08-31T12:59:54.407Z,3.35
2023-08-31T13:02:21.921Z,1.42
2023-08-31T13:04:50.939Z,2.55
2023-08-31T13:07:18.638Z,3.83
2023-08-31T13:09:47.331Z,1.77
2023-08-31T13:12:16.784Z,3.30
2023-08-31T13:14:47.588Z,2.00
2023-08-31T13:17:15.344Z,2.65
2023-08-31T13:19:43.063Z,2.25
2023-08-31T13:22:16.357Z,3.30
2023-08-31T13:24:44.162Z,3.45
2023-08-31T13:27:11.893Z,1.55
2023-08-31T13:29:39.325Z,1.77
2023-08-31T13:32:07.109Z,3.30
2023-08-31T13:34:35.123Z,1.62
2023-08-31T13:37:05.069Z,2.78
2023-08-31T13:39:36.774Z,2.40
2023-08-31T13:42:05.054Z,1.80
2023-08-31T13:44:32.924Z,1.70
2023-08-31T13:47:00.592Z,1.85
2023-08-31T13:49:29.028Z,2.53
2023-08-31T13:51:56.930Z,1.60
2023-08-31T13:54:24.415Z,1.87
2023-08-31T13:56:52.609Z,4.15
2023-08-31T13:59:20.316Z,2.75
2023-08-31T14:01:47.788Z,2.45
2023-08-31T14:04:15.556Z,2.47
2023-08-31T14:06:43.034Z,1.95
2023-08-31T14:09:10.485Z,2.25
2023-08-31T14:11:38.252Z,2.10
2023-08-31T14:14:15.845Z,1.48
2023-08-31T14:16:43.666Z,3.53
2023-08-31T14:19:12.354Z,3.50
2023-08-31T14:21:39.912Z,1.50
2023-08-31T14:24:08.114Z,2.17
2023-08-31T14:26:35.584Z,2.53
2023-08-31T14:29:03.102Z,1.87
2023-08-31T14:31:30.842Z,1.83
2023-08-31T14:33:58.262Z,4.30
2023-08-31T14:36:27.172Z,1.92
2023-08-31T14:38:55.086Z,2.03
2023-08-31T14:41:23.207Z,2.25
2023-08-31T14:43:54.123Z,2.12
2023-08-31T14:46:25.337Z,2.53
2023-08-31T14:48:54.166Z,2.08
2023-08-31T14:51:22.579Z,2.20
2023-08-31T14:53:50.018Z,2.30
2023-08-31T14:56:17.402Z,1.62
2023-08-31T14:58:45.083Z,1.62
2023-08-31T15:01:12.641Z,1.52
2023-08-31T15:03:40.152Z,2.95
2023-08-31T15:06:07.869Z,2.22
2023-08-31T15:08:40.804Z,2.00
2023-08-31T15:11:09.240Z,1.67
2023-08-31T15:13:36.721Z,2.70
2023-08-31T15:16:04.242Z,3.85
2023-08-31T15:18:32.107Z,3.42
2023-08-31T15:20:59.607Z,3.10
2023-08-31T15:23:27.309Z,2.20
2023-08-31T15:26:05.173Z,2.50
2023-08-31T15:28:32.609Z,3.42
2023-08-31T15:31:00.393Z,2.65
2023-08-31T15:33:28.650Z,1.37
2023-08-31T15:36:09.587Z,2.50
2023-08-31T15:38:38.357Z,2.27
2023-08-31T15:41:07.999Z,2.37
2023-08-31T15:43:38.049Z,1.55
2023-08-31T15:46:05.821Z,4.03
2023-08-31T15:48:33.238Z,2.58
2023-08-31T15:51:00.921Z,2.03
2023-08-31T15:53:29.380Z,1.77
2023-08-31T15:55:57.048Z,2.25
2023-08-31T15:58:27.595Z,2.15
2023-08-31T16:01:05.620Z,2.75
2023-08-31T16:03:35.332Z,2.60
2023-08-31T16:06:05.359Z,2.10
2023-08-31T16:08:33.154Z,1.62
2023-08-31T16:11:04.654Z,2.17
2023-08-31T16:13:32.526Z,2.28
2023-08-31T16:16:00.193Z,2.20
2023-08-31T16:18:28.055Z,1.75
2023-08-31T16:20:55.438Z,2.45
2023-08-31T16:23:25.592Z,2.10
2023-08-31T16:25:53.223Z,2.20
2023-08-31T16:28:20.971Z,1.23
2023-08-31T16:30:48.744Z,1.87
2023-08-31T16:33:16.550Z,1.33
2023-08-31T16:35:44.135Z,3.35
2023-08-31T16:38:12.208Z,3.30
2023-08-31T16:40:40.174Z,2.37
2023-08-31T16:43:07.590Z,1.58
2023-08-31T16:45:35.285Z,1.85
2023-08-31T16:48:03.176Z,2.70
2023-08-31T16:50:35.297Z,3.00
2023-08-31T16:53:04.329Z,3.58
2023-08-31T16:55:32.184Z,6.10
2023-08-31T16:58:00.047Z,3.65
2023-08-31T17:00:27.830Z,1.80
2023-08-31T17:02:55.633Z,1.85
2023-08-31T17:05:23.230Z,2.35
2023-08-31T17:07:50.964Z,2.30
2023-08-31T17:10:18.515Z,4.57
2023-08-31T17:12:46.401Z,2.67
2023-08-31T17:15:14.441Z,4.03
2023-08-31T17:17:45.576Z,2.30
2023-08-31T17:20:19.399Z,2.83
2023-08-31T17:22:47.619Z,2.15
2023-08-31T17:25:15.243Z,6.22
2023-08-31T17:27:42.983Z,4.45
2023-08-31T17:30:10.660Z,2.47
2023-08-31T17:32:38.425Z,2.45
2023-08-31T17:35:07.483Z,3.05
2023-08-31T17:37:35.434Z,2.12
2023-08-31T17:40:09.241Z,2.90
2023-08-31T17:42:38.322Z,2.55
2023-08-31T17:45:06.197Z,2.80
2023-08-31T17:47:33.780Z,2.55
2023-08-31T17:50:01.789Z,1.98
2023-08-31T17:52:29.438Z,2.30
2023-08-31T17:54:56.946Z,4.12
2023-08-31T17:57:29.242Z,4.00
2023-08-31T18:02:24.168Z,2.22
2023-08-31T18:04:52.374Z,3.08
2023-08-31T18:07:19.897Z,3.78
2023-08-31T18:09:47.386Z,4.37
2023-08-31T18:12:15.232Z,3.42
2023-08-31T18:14:44.702Z,3.20
2023-08-31T18:17:13.249Z,2.00
2023-08-31T18:19:40.987Z,3.42
2023-08-31T18:22:08.409Z,1.87
2023-08-31T18:24:37.865Z,2.83
2023-08-31T18:27:11.055Z,6.15
2023-08-31T18:29:38.695Z,4.10
2023-08-31T18:32:06.792Z,5.07
2023-08-31T18:34:34.306Z,3.37
2023-08-31T18:37:01.822Z,5.78
2023-08-31T18:39:29.532Z,3.95
2023-08-31T18:41:57.489Z,6.40
2023-08-31T18:44:25.460Z,2.15
2023-08-31T18:46:53.199Z,8.60
2023-08-31T18:49:20.716Z,4.07
2023-08-31T18:51:48.740Z,4.15
2023-08-31T18:54:16.833Z,3.10
2023-08-31T18:56:44.265Z,3.58
2023-08-31T18:59:12.006Z,4.12
2023-08-31T19:01:39.849Z,2.85
2023-08-31T19:04:07.389Z,2.22
2023-08-31T19:06:34.895Z,4.07
2023-08-31T19:09:04.655Z,5.82
2023-08-31T19:11:32.205Z,5.05
2023-08-31T19:13:59.669Z,6.12
2023-08-31T19:16:27.391Z,4.72
2023-08-31T19:18:55.138Z,3.10
2023-08-31T19:21:24.514Z,3.60
2023-08-31T19:23:52.274Z,3.92
2023-08-31T19:26:19.806Z,2.70
2023-08-31T19:28:47.297Z,6.40
2023-08-31T19:31:14.957Z,2.78
2023-08-31T19:33:42.409Z,3.30
2023-08-31T19:36:11.233Z,3.62
2023-08-31T19:38:40.666Z,4.45
2023-08-31T19:41:08.111Z,3.97
2023-08-31T19:43:35.554Z,2.75
2023-08-31T19:46:03.951Z,3.65
2023-08-31T19:48:32.841Z,4.60
2023-08-31T19:51:09.714Z,4.20
2023-08-31T19:53:37.619Z,3.92
2023-08-31T19:56:05.958Z,4.35
2023-08-31T19:58:35.520Z,2.85
2023-08-31T20:01:03.673Z,4.57
2023-08-31T20:03:37.119Z,3.47
2023-08-31T20:06:08.431Z,4.18
2023-08-31T20:08:38.182Z,4.75
2023-08-31T20:11:06.306Z,4.40
2023-08-31T20:13:33.813Z,3.78
2023-08-31T20:16:04.239Z,3.33
2023-08-31T20:18:32.140Z,4.85
2023-08-31T20:20:59.615Z,2.40
2023-08-31T20:23:27.297Z,3.47
2023-08-31T20:25:54.745Z,3.17
2023-08-31T20:28:22.255Z,2.62
2023-08-31T20:30:50.095Z,3.47
2023-08-31T20:33:17.822Z,3.08
2023-08-31T20:35:45.308Z,1.92
2023-08-31T20:38:13.749Z,6.65
2023-08-31T20:40:41.897Z,4.53
2023-08-31T20:43:09.387Z,3.15
2023-08-31T20:45:39.477Z,2.37
2023-08-31T20:48:10.373Z,5.90
2023-08-31T20:50:38.767Z,4.43
2023-08-31T20:53:06.444Z,3.30
2023-08-31T20:55:33.961Z,3.35
2023-08-31T20:58:01.665Z,3.00
2023-08-31T21:00:29.117Z,6.40
2023-08-31T21:02:56.676Z,4.35
2023-08-31T21:05:24.391Z,3.20
2023-08-31T21:07:51.833Z,3.10
2023-08-31T21:10:19.524Z,2.60
2023-08-31T21:12:47.365Z,2.40
2023-08-31T21:15:14.773Z,4.18
2023-08-31T21:17:42.514Z,3.17
2023-08-31T21:20:10.553Z,3.92
2023-08-31T21:22:38.150Z,2.20
2023-08-31T21:25:06.108Z,2.95
2023-08-31T21:27:33.819Z,3.37
2023-08-31T21:30:01.286Z,4.15
2023-08-31T21:32:28.707Z,2.42
2023-08-31T21:34:56.434Z,3.30
2023-08-31T21:37:23.830Z,4.03
2023-08-31T21:39:51.275Z,2.60
2023-08-31T21:42:19.003Z,4.03
2023-08-31T21:44:46.440Z,3.22
2023-08-31T21:47:13.824Z,3.12
2023-08-31T21:49:41.535Z,4.25
2023-08-31T21:52:09.030Z,3.25
2023-08-31T21:54:36.496Z,3.08
2023-08-31T21:57:05.602Z,2.97
2023-08-31T21:59:33.031Z,2.28
2023-08-31T22:02:00.662Z,2.35
2023-08-31T22:04:29.065Z,4.28
2023-08-31T22:06:57.180Z,3.40
2023-08-31T22:09:24.969Z,3.45
2023-08-31T22:11:52.751Z,3.03
2023-08-31T22:14:20.463Z,2.22
2023-08-31T22:16:48.452Z,2.55
2023-08-31T22:19:16.605Z,2.72
2023-08-31T22:21:44.727Z,3.15
2023-08-31T22:24:12.284Z,3.65
2023-08-31T22:26:40.046Z,4.03
2023-08-31T22:29:07.592Z,5.47
2023-08-31T22:31:35.049Z,4.90
2023-08-31T22:34:03.840Z,4.05
2023-08-31T22:36:31.495Z,3.33
2023-08-31T22:38:59.960Z,5.25
2023-08-31T22:41:27.739Z,2.25
2023-08-31T22:43:56.180Z,2.50
2023-08-31T22:46:23.706Z,4.12
2023-08-31T22:48:51.419Z,3.70
2023-08-31T22:51:18.860Z,3.30
2023-08-31T22:53:46.302Z,2.75
2023-08-31T22:56:14.093Z,4.62
2023-08-31T22:58:41.556Z,2.60
2023-08-31T23:01:09.078Z,5.25
2023-08-31T23:03:36.795Z,3.45
2023-08-31T23:06:04.556Z,3.85
2023-08-31T23:08:31.952Z,2.67
2023-08-31T23:11:01.080Z,3.45
2023-08-31T23:13:28.954Z,2.37
2023-08-31T23:15:56.428Z,2.15
2023-08-31T23:18:24.792Z,3.50
2023-08-31T23:20:52.195Z,5.72
2023-08-31T23:23:19.629Z,3.17
2023-08-31T23:25:47.376Z,3.83
2023-08-31T23:28:15.096Z,2.65
2023-08-31T23:30:42.756Z,3.65
2023-08-31T23:33:11.320Z,2.87
2023-08-31T23:35:38.797Z,5.70
2023-08-31T23:38:08.384Z,2.70
2023-08-31T23:40:36.195Z,4.30
2023-08-31T23:43:04.067Z,3.12
2023-08-31T23:45:31.948Z,3.05
2023-08-31T23:47:59.914Z,2.85
2023-08-31T23:50:27.667Z,3.47
2023-08-31T23:52:55.182Z,3.45
2023-08-31T23:55:22.890Z,2.75
2023-08-31T23:57:50.370Z,3.45
